<?xml version="1.0" encoding="UTF-8" standalone="no" ?>
<gpx xmlns="http://www.topografix.com/GPX/1/1" xmlns:xsi="http://www.w3.org/2001/XMLSchema-instance" xsi:schemaLocation="http://www.topografix.com/GPX/1/1 http://www.topografix.com/GPX/1/1/gpx.xsd" version="1.1" creator="VisuGPX - https://www.visugpx.com">
  <metadata>
    <name>Balade Chaux les Clerval 9/12  M-O et Paulette</name>
    <desc><![CDATA[[img][/img]]]></desc>
  </metadata>
  <trk>
    <name><![CDATA[9 déc. 2015 13:07:45]]></name>
    <cmt><![CDATA[9 déc. 2015 13:07:45]]></cmt>
    <trkseg>
      <trkpt lat="47.38296" lon="6.50794">
        <ele>332</ele>
        <time>2015-12-09T12:07:45Z</time>
      </trkpt>
      <trkpt lat="47.38299" lon="6.50799">
        <ele>336</ele>
        <time>2015-12-09T12:12:07Z</time>
      </trkpt>
      <trkpt lat="47.3829" lon="6.50808">
        <ele>337</ele>
        <time>2015-12-09T12:12:40Z</time>
      </trkpt>
      <trkpt lat="47.38288" lon="6.50811">
        <ele>338</ele>
        <time>2015-12-09T12:12:46Z</time>
      </trkpt>
      <trkpt lat="47.38283" lon="6.50815">
        <ele>339</ele>
        <time>2015-12-09T12:12:52Z</time>
      </trkpt>
      <trkpt lat="47.38274" lon="6.5082">
        <ele>337</ele>
        <time>2015-12-09T12:13:02Z</time>
      </trkpt>
      <trkpt lat="47.38268" lon="6.50821">
        <ele>337</ele>
        <time>2015-12-09T12:13:07Z</time>
      </trkpt>
      <trkpt lat="47.38263" lon="6.50823">
        <ele>339</ele>
        <time>2015-12-09T12:13:12Z</time>
      </trkpt>
      <trkpt lat="47.38254" lon="6.50828">
        <ele>339</ele>
        <time>2015-12-09T12:13:23Z</time>
      </trkpt>
      <trkpt lat="47.38249" lon="6.50831">
        <ele>340</ele>
        <time>2015-12-09T12:13:28Z</time>
      </trkpt>
      <trkpt lat="47.38246" lon="6.50836">
        <ele>340</ele>
        <time>2015-12-09T12:13:33Z</time>
      </trkpt>
      <trkpt lat="47.3824" lon="6.50848">
        <ele>339</ele>
        <time>2015-12-09T12:13:45Z</time>
      </trkpt>
      <trkpt lat="47.38232" lon="6.5089">
        <ele>340</ele>
        <time>2015-12-09T12:14:21Z</time>
      </trkpt>
      <trkpt lat="47.3823" lon="6.50896">
        <ele>340</ele>
        <time>2015-12-09T12:14:26Z</time>
      </trkpt>
      <trkpt lat="47.38222" lon="6.50922">
        <ele>338</ele>
        <time>2015-12-09T12:14:48Z</time>
      </trkpt>
      <trkpt lat="47.38219" lon="6.50936">
        <ele>338</ele>
        <time>2015-12-09T12:15:02Z</time>
      </trkpt>
      <trkpt lat="47.38199" lon="6.50978">
        <ele>335</ele>
        <time>2015-12-09T12:15:33Z</time>
      </trkpt>
      <trkpt lat="47.38193" lon="6.50997">
        <ele>333</ele>
        <time>2015-12-09T12:15:47Z</time>
      </trkpt>
      <trkpt lat="47.38189" lon="6.51011">
        <ele>333</ele>
        <time>2015-12-09T12:15:56Z</time>
      </trkpt>
      <trkpt lat="47.38187" lon="6.51018">
        <ele>332</ele>
        <time>2015-12-09T12:16:01Z</time>
      </trkpt>
      <trkpt lat="47.38184" lon="6.51025">
        <ele>332</ele>
        <time>2015-12-09T12:16:06Z</time>
      </trkpt>
      <trkpt lat="47.38182" lon="6.51031">
        <ele>331</ele>
        <time>2015-12-09T12:16:10Z</time>
      </trkpt>
      <trkpt lat="47.38171" lon="6.51079">
        <ele>329</ele>
        <time>2015-12-09T12:16:43Z</time>
      </trkpt>
      <trkpt lat="47.38169" lon="6.51086">
        <ele>329</ele>
        <time>2015-12-09T12:16:47Z</time>
      </trkpt>
      <trkpt lat="47.38168" lon="6.51092">
        <ele>329</ele>
        <time>2015-12-09T12:16:51Z</time>
      </trkpt>
      <trkpt lat="47.38166" lon="6.51098">
        <ele>330</ele>
        <time>2015-12-09T12:16:55Z</time>
      </trkpt>
      <trkpt lat="47.38163" lon="6.51112">
        <ele>330</ele>
        <time>2015-12-09T12:17:03Z</time>
      </trkpt>
      <trkpt lat="47.38161" lon="6.51127">
        <ele>330</ele>
        <time>2015-12-09T12:17:13Z</time>
      </trkpt>
      <trkpt lat="47.38159" lon="6.51157">
        <ele>330</ele>
        <time>2015-12-09T12:17:32Z</time>
      </trkpt>
      <trkpt lat="47.38158" lon="6.5116">
        <ele>330</ele>
        <time>2015-12-09T12:17:43Z</time>
      </trkpt>
      <trkpt lat="47.38158" lon="6.51168">
        <ele>331</ele>
        <time>2015-12-09T12:17:47Z</time>
      </trkpt>
      <trkpt lat="47.38151" lon="6.51187">
        <ele>331</ele>
        <time>2015-12-09T12:17:59Z</time>
      </trkpt>
      <trkpt lat="47.38149" lon="6.51193">
        <ele>331</ele>
        <time>2015-12-09T12:18:03Z</time>
      </trkpt>
      <trkpt lat="47.38146" lon="6.512">
        <ele>332</ele>
        <time>2015-12-09T12:18:08Z</time>
      </trkpt>
      <trkpt lat="47.38142" lon="6.51204">
        <ele>331</ele>
        <time>2015-12-09T12:18:14Z</time>
      </trkpt>
      <trkpt lat="47.38132" lon="6.51221">
        <ele>331</ele>
        <time>2015-12-09T12:18:29Z</time>
      </trkpt>
      <trkpt lat="47.38109" lon="6.51265">
        <ele>337</ele>
        <time>2015-12-09T12:19:04Z</time>
      </trkpt>
      <trkpt lat="47.381" lon="6.51284">
        <ele>334</ele>
        <time>2015-12-09T12:19:19Z</time>
      </trkpt>
      <trkpt lat="47.38098" lon="6.51291">
        <ele>334</ele>
        <time>2015-12-09T12:19:24Z</time>
      </trkpt>
      <trkpt lat="47.38092" lon="6.51303">
        <ele>335</ele>
        <time>2015-12-09T12:19:34Z</time>
      </trkpt>
      <trkpt lat="47.38089" lon="6.51308">
        <ele>335</ele>
        <time>2015-12-09T12:19:38Z</time>
      </trkpt>
      <trkpt lat="47.38085" lon="6.51322">
        <ele>334</ele>
        <time>2015-12-09T12:19:48Z</time>
      </trkpt>
      <trkpt lat="47.38073" lon="6.51365">
        <ele>336</ele>
        <time>2015-12-09T12:20:18Z</time>
      </trkpt>
      <trkpt lat="47.38071" lon="6.51372">
        <ele>336</ele>
        <time>2015-12-09T12:20:23Z</time>
      </trkpt>
      <trkpt lat="47.38061" lon="6.51405">
        <ele>337</ele>
        <time>2015-12-09T12:20:46Z</time>
      </trkpt>
      <trkpt lat="47.38058" lon="6.51412">
        <ele>337</ele>
        <time>2015-12-09T12:20:52Z</time>
      </trkpt>
      <trkpt lat="47.38051" lon="6.51431">
        <ele>335</ele>
        <time>2015-12-09T12:21:07Z</time>
      </trkpt>
      <trkpt lat="47.38033" lon="6.51475">
        <ele>335</ele>
        <time>2015-12-09T12:21:41Z</time>
      </trkpt>
      <trkpt lat="47.3802" lon="6.51508">
        <ele>336</ele>
        <time>2015-12-09T12:22:06Z</time>
      </trkpt>
      <trkpt lat="47.38016" lon="6.51536">
        <ele>339</ele>
        <time>2015-12-09T12:22:26Z</time>
      </trkpt>
      <trkpt lat="47.38017" lon="6.51558">
        <ele>339</ele>
        <time>2015-12-09T12:22:40Z</time>
      </trkpt>
      <trkpt lat="47.38018" lon="6.51565">
        <ele>339</ele>
        <time>2015-12-09T12:22:45Z</time>
      </trkpt>
      <trkpt lat="47.3802" lon="6.51573">
        <ele>339</ele>
        <time>2015-12-09T12:22:50Z</time>
      </trkpt>
      <trkpt lat="47.3803" lon="6.51621">
        <ele>341</ele>
        <time>2015-12-09T12:23:24Z</time>
      </trkpt>
      <trkpt lat="47.38038" lon="6.51659">
        <ele>343</ele>
        <time>2015-12-09T12:23:56Z</time>
      </trkpt>
      <trkpt lat="47.38041" lon="6.51681">
        <ele>344</ele>
        <time>2015-12-09T12:24:10Z</time>
      </trkpt>
      <trkpt lat="47.38045" lon="6.51703">
        <ele>345</ele>
        <time>2015-12-09T12:24:26Z</time>
      </trkpt>
      <trkpt lat="47.38051" lon="6.51755">
        <ele>343</ele>
        <time>2015-12-09T12:24:59Z</time>
      </trkpt>
      <trkpt lat="47.3805" lon="6.5177">
        <ele>344</ele>
        <time>2015-12-09T12:25:08Z</time>
      </trkpt>
      <trkpt lat="47.38031" lon="6.5181">
        <ele>346</ele>
        <time>2015-12-09T12:25:41Z</time>
      </trkpt>
      <trkpt lat="47.38019" lon="6.51836">
        <ele>346</ele>
        <time>2015-12-09T12:26:02Z</time>
      </trkpt>
      <trkpt lat="47.38013" lon="6.51848">
        <ele>347</ele>
        <time>2015-12-09T12:26:13Z</time>
      </trkpt>
      <trkpt lat="47.38004" lon="6.51873">
        <ele>348</ele>
        <time>2015-12-09T12:26:31Z</time>
      </trkpt>
      <trkpt lat="47.38002" lon="6.51879">
        <ele>349</ele>
        <time>2015-12-09T12:26:35Z</time>
      </trkpt>
      <trkpt lat="47.37983" lon="6.5193">
        <ele>353</ele>
        <time>2015-12-09T12:27:12Z</time>
      </trkpt>
      <trkpt lat="47.37979" lon="6.51942">
        <ele>353</ele>
        <time>2015-12-09T12:27:21Z</time>
      </trkpt>
      <trkpt lat="47.37972" lon="6.51953">
        <ele>352</ele>
        <time>2015-12-09T12:27:29Z</time>
      </trkpt>
      <trkpt lat="47.37967" lon="6.51963">
        <ele>353</ele>
        <time>2015-12-09T12:27:39Z</time>
      </trkpt>
      <trkpt lat="47.37952" lon="6.51981">
        <ele>355</ele>
        <time>2015-12-09T12:27:58Z</time>
      </trkpt>
      <trkpt lat="47.37943" lon="6.51985">
        <ele>356</ele>
        <time>2015-12-09T12:28:08Z</time>
      </trkpt>
      <trkpt lat="47.37906" lon="6.51999">
        <ele>356</ele>
        <time>2015-12-09T12:28:46Z</time>
      </trkpt>
      <trkpt lat="47.37897" lon="6.52004">
        <ele>356</ele>
        <time>2015-12-09T12:28:55Z</time>
      </trkpt>
      <trkpt lat="47.37889" lon="6.5201">
        <ele>354</ele>
        <time>2015-12-09T12:29:10Z</time>
      </trkpt>
      <trkpt lat="47.37866" lon="6.52037">
        <ele>354</ele>
        <time>2015-12-09T12:29:34Z</time>
      </trkpt>
      <trkpt lat="47.37861" lon="6.52041">
        <ele>354</ele>
        <time>2015-12-09T12:29:47Z</time>
      </trkpt>
      <trkpt lat="47.37849" lon="6.52041">
        <ele>354</ele>
        <time>2015-12-09T12:30:07Z</time>
      </trkpt>
      <trkpt lat="47.3783" lon="6.52031">
        <ele>354</ele>
        <time>2015-12-09T12:30:26Z</time>
      </trkpt>
      <trkpt lat="47.37821" lon="6.52026">
        <ele>355</ele>
        <time>2015-12-09T12:30:35Z</time>
      </trkpt>
      <trkpt lat="47.37799" lon="6.51994">
        <ele>349</ele>
        <time>2015-12-09T12:31:05Z</time>
      </trkpt>
      <trkpt lat="47.37779" lon="6.51988">
        <ele>348</ele>
        <time>2015-12-09T12:31:24Z</time>
      </trkpt>
      <trkpt lat="47.37755" lon="6.51983">
        <ele>347</ele>
        <time>2015-12-09T12:31:47Z</time>
      </trkpt>
      <trkpt lat="47.37746" lon="6.51977">
        <ele>344</ele>
        <time>2015-12-09T12:32:00Z</time>
      </trkpt>
      <trkpt lat="47.37743" lon="6.51977">
        <ele>343</ele>
        <time>2015-12-09T12:32:07Z</time>
      </trkpt>
      <trkpt lat="47.37738" lon="6.5197">
        <ele>341</ele>
        <time>2015-12-09T12:32:18Z</time>
      </trkpt>
      <trkpt lat="47.37734" lon="6.51968">
        <ele>341</ele>
        <time>2015-12-09T12:32:21Z</time>
      </trkpt>
      <trkpt lat="47.37715" lon="6.5196">
        <ele>339</ele>
        <time>2015-12-09T12:32:40Z</time>
      </trkpt>
      <trkpt lat="47.37711" lon="6.51956">
        <ele>339</ele>
        <time>2015-12-09T12:32:44Z</time>
      </trkpt>
      <trkpt lat="47.37703" lon="6.51946">
        <ele>338</ele>
        <time>2015-12-09T12:32:53Z</time>
      </trkpt>
      <trkpt lat="47.37698" lon="6.51943">
        <ele>337</ele>
        <time>2015-12-09T12:32:57Z</time>
      </trkpt>
      <trkpt lat="47.37693" lon="6.5194">
        <ele>338</ele>
        <time>2015-12-09T12:33:01Z</time>
      </trkpt>
      <trkpt lat="47.37689" lon="6.51937">
        <ele>338</ele>
        <time>2015-12-09T12:33:05Z</time>
      </trkpt>
      <trkpt lat="47.37685" lon="6.51934">
        <ele>338</ele>
        <time>2015-12-09T12:33:10Z</time>
      </trkpt>
      <trkpt lat="47.37671" lon="6.51925">
        <ele>337</ele>
        <time>2015-12-09T12:33:24Z</time>
      </trkpt>
      <trkpt lat="47.37666" lon="6.51924">
        <ele>337</ele>
        <time>2015-12-09T12:33:29Z</time>
      </trkpt>
      <trkpt lat="47.37656" lon="6.51922">
        <ele>336</ele>
        <time>2015-12-09T12:33:40Z</time>
      </trkpt>
      <trkpt lat="47.37652" lon="6.51918">
        <ele>336</ele>
        <time>2015-12-09T12:33:47Z</time>
      </trkpt>
      <trkpt lat="47.37613" lon="6.51919">
        <ele>332</ele>
        <time>2015-12-09T12:34:23Z</time>
      </trkpt>
      <trkpt lat="47.37592" lon="6.51933">
        <ele>332</ele>
        <time>2015-12-09T12:34:42Z</time>
      </trkpt>
      <trkpt lat="47.37587" lon="6.51937">
        <ele>333</ele>
        <time>2015-12-09T12:34:47Z</time>
      </trkpt>
      <trkpt lat="47.37583" lon="6.51941">
        <ele>333</ele>
        <time>2015-12-09T12:34:51Z</time>
      </trkpt>
      <trkpt lat="47.37554" lon="6.51966">
        <ele>329</ele>
        <time>2015-12-09T12:35:31Z</time>
      </trkpt>
      <trkpt lat="47.3755" lon="6.5198">
        <ele>329</ele>
        <time>2015-12-09T12:35:56Z</time>
      </trkpt>
      <trkpt lat="47.37545" lon="6.51982">
        <ele>329</ele>
        <time>2015-12-09T12:36:07Z</time>
      </trkpt>
      <trkpt lat="47.37541" lon="6.51982">
        <ele>331</ele>
        <time>2015-12-09T12:36:30Z</time>
      </trkpt>
      <trkpt lat="47.37533" lon="6.51988">
        <ele>331</ele>
        <time>2015-12-09T12:36:41Z</time>
      </trkpt>
      <trkpt lat="47.37512" lon="6.52015">
        <ele>338</ele>
        <time>2015-12-09T12:37:08Z</time>
      </trkpt>
      <trkpt lat="47.37505" lon="6.5204">
        <ele>343</ele>
        <time>2015-12-09T12:37:31Z</time>
      </trkpt>
      <trkpt lat="47.37502" lon="6.52054">
        <ele>344</ele>
        <time>2015-12-09T12:37:40Z</time>
      </trkpt>
      <trkpt lat="47.37502" lon="6.52062">
        <ele>346</ele>
        <time>2015-12-09T12:37:54Z</time>
      </trkpt>
      <trkpt lat="47.37498" lon="6.52075">
        <ele>347</ele>
        <time>2015-12-09T12:38:05Z</time>
      </trkpt>
      <trkpt lat="47.37491" lon="6.52101">
        <ele>348</ele>
        <time>2015-12-09T12:38:18Z</time>
      </trkpt>
      <trkpt lat="47.37473" lon="6.52153">
        <ele>334</ele>
        <time>2015-12-09T12:39:03Z</time>
      </trkpt>
      <trkpt lat="47.37469" lon="6.52167">
        <ele>334</ele>
        <time>2015-12-09T12:39:15Z</time>
      </trkpt>
      <trkpt lat="47.37456" lon="6.52188">
        <ele>335</ele>
        <time>2015-12-09T12:39:33Z</time>
      </trkpt>
      <trkpt lat="47.37452" lon="6.522">
        <ele>336</ele>
        <time>2015-12-09T12:39:49Z</time>
      </trkpt>
      <trkpt lat="47.37427" lon="6.52224">
        <ele>341</ele>
        <time>2015-12-09T12:40:17Z</time>
      </trkpt>
      <trkpt lat="47.37418" lon="6.5223">
        <ele>341</ele>
        <time>2015-12-09T12:40:26Z</time>
      </trkpt>
      <trkpt lat="47.37405" lon="6.52249">
        <ele>340</ele>
        <time>2015-12-09T12:40:46Z</time>
      </trkpt>
      <trkpt lat="47.37392" lon="6.5227">
        <ele>336</ele>
        <time>2015-12-09T12:41:00Z</time>
      </trkpt>
      <trkpt lat="47.3739" lon="6.52283">
        <ele>335</ele>
        <time>2015-12-09T12:41:10Z</time>
      </trkpt>
      <trkpt lat="47.37385" lon="6.52294">
        <ele>335</ele>
        <time>2015-12-09T12:41:21Z</time>
      </trkpt>
      <trkpt lat="47.37379" lon="6.52305">
        <ele>334</ele>
        <time>2015-12-09T12:41:29Z</time>
      </trkpt>
      <trkpt lat="47.37374" lon="6.52317">
        <ele>335</ele>
        <time>2015-12-09T12:41:43Z</time>
      </trkpt>
      <trkpt lat="47.37354" lon="6.52346">
        <ele>341</ele>
        <time>2015-12-09T12:42:16Z</time>
      </trkpt>
      <trkpt lat="47.3735" lon="6.5236">
        <ele>342</ele>
        <time>2015-12-09T12:42:29Z</time>
      </trkpt>
      <trkpt lat="47.37342" lon="6.52367">
        <ele>344</ele>
        <time>2015-12-09T12:42:39Z</time>
      </trkpt>
      <trkpt lat="47.37335" lon="6.52377">
        <ele>345</ele>
        <time>2015-12-09T12:42:47Z</time>
      </trkpt>
      <trkpt lat="47.37328" lon="6.52385">
        <ele>348</ele>
        <time>2015-12-09T12:43:01Z</time>
      </trkpt>
      <trkpt lat="47.37318" lon="6.52408">
        <ele>348</ele>
        <time>2015-12-09T12:43:18Z</time>
      </trkpt>
      <trkpt lat="47.37313" lon="6.52421">
        <ele>348</ele>
        <time>2015-12-09T12:43:28Z</time>
      </trkpt>
      <trkpt lat="47.37313" lon="6.52435">
        <ele>347</ele>
        <time>2015-12-09T12:43:39Z</time>
      </trkpt>
      <trkpt lat="47.37309" lon="6.52447">
        <ele>347</ele>
        <time>2015-12-09T12:43:49Z</time>
      </trkpt>
      <trkpt lat="47.37297" lon="6.5245">
        <ele>348</ele>
        <time>2015-12-09T12:44:12Z</time>
      </trkpt>
      <trkpt lat="47.37289" lon="6.52442">
        <ele>349</ele>
        <time>2015-12-09T12:44:22Z</time>
      </trkpt>
      <trkpt lat="47.37283" lon="6.52432">
        <ele>351</ele>
        <time>2015-12-09T12:44:33Z</time>
      </trkpt>
      <trkpt lat="47.37273" lon="6.52429">
        <ele>353</ele>
        <time>2015-12-09T12:44:45Z</time>
      </trkpt>
      <trkpt lat="47.37255" lon="6.52433">
        <ele>355</ele>
        <time>2015-12-09T12:45:02Z</time>
      </trkpt>
      <trkpt lat="47.37245" lon="6.52434">
        <ele>356</ele>
        <time>2015-12-09T12:45:13Z</time>
      </trkpt>
      <trkpt lat="47.37227" lon="6.52445">
        <ele>358</ele>
        <time>2015-12-09T12:45:33Z</time>
      </trkpt>
      <trkpt lat="47.37199" lon="6.52453">
        <ele>364</ele>
        <time>2015-12-09T12:46:04Z</time>
      </trkpt>
      <trkpt lat="47.37171" lon="6.52467">
        <ele>365</ele>
        <time>2015-12-09T12:46:40Z</time>
      </trkpt>
      <trkpt lat="47.37153" lon="6.52477">
        <ele>368</ele>
        <time>2015-12-09T12:47:03Z</time>
      </trkpt>
      <trkpt lat="47.37144" lon="6.5248">
        <ele>368</ele>
        <time>2015-12-09T12:47:14Z</time>
      </trkpt>
      <trkpt lat="47.37125" lon="6.52485">
        <ele>368</ele>
        <time>2015-12-09T12:47:35Z</time>
      </trkpt>
      <trkpt lat="47.37114" lon="6.52488">
        <ele>369</ele>
        <time>2015-12-09T12:47:52Z</time>
      </trkpt>
      <trkpt lat="47.37105" lon="6.5249">
        <ele>370</ele>
        <time>2015-12-09T12:47:58Z</time>
      </trkpt>
      <trkpt lat="47.37096" lon="6.52494">
        <ele>371</ele>
        <time>2015-12-09T12:48:06Z</time>
      </trkpt>
      <trkpt lat="47.37087" lon="6.52496">
        <ele>370</ele>
        <time>2015-12-09T12:48:16Z</time>
      </trkpt>
      <trkpt lat="47.37078" lon="6.525">
        <ele>371</ele>
        <time>2015-12-09T12:48:25Z</time>
      </trkpt>
      <trkpt lat="47.37069" lon="6.52503">
        <ele>372</ele>
        <time>2015-12-09T12:48:39Z</time>
      </trkpt>
      <trkpt lat="47.37061" lon="6.5251">
        <ele>373</ele>
        <time>2015-12-09T12:48:47Z</time>
      </trkpt>
      <trkpt lat="47.37052" lon="6.52514">
        <ele>374</ele>
        <time>2015-12-09T12:48:56Z</time>
      </trkpt>
      <trkpt lat="47.37043" lon="6.52512">
        <ele>374</ele>
        <time>2015-12-09T12:49:12Z</time>
      </trkpt>
      <trkpt lat="47.37026" lon="6.52516">
        <ele>376</ele>
        <time>2015-12-09T12:49:39Z</time>
      </trkpt>
      <trkpt lat="47.37032" lon="6.5251">
        <ele>376</ele>
        <time>2015-12-09T12:49:57Z</time>
      </trkpt>
      <trkpt lat="47.37033" lon="6.52524">
        <ele>375</ele>
        <time>2015-12-09T12:50:05Z</time>
      </trkpt>
      <trkpt lat="47.37022" lon="6.5253">
        <ele>375</ele>
        <time>2015-12-09T12:50:18Z</time>
      </trkpt>
      <trkpt lat="47.37024" lon="6.52525">
        <ele>373</ele>
        <time>2015-12-09T12:51:38Z</time>
      </trkpt>
      <trkpt lat="47.37025" lon="6.52536">
        <ele>377</ele>
        <time>2015-12-09T12:55:29Z</time>
      </trkpt>
      <trkpt lat="47.37026" lon="6.52544">
        <ele>377</ele>
        <time>2015-12-09T12:55:36Z</time>
      </trkpt>
      <trkpt lat="47.37028" lon="6.52551">
        <ele>379</ele>
        <time>2015-12-09T12:55:43Z</time>
      </trkpt>
      <trkpt lat="47.37032" lon="6.52547">
        <ele>381</ele>
        <time>2015-12-09T12:55:53Z</time>
      </trkpt>
      <trkpt lat="47.37037" lon="6.52549">
        <ele>381</ele>
        <time>2015-12-09T12:55:59Z</time>
      </trkpt>
      <trkpt lat="47.37056" lon="6.52566">
        <ele>387</ele>
        <time>2015-12-09T12:56:21Z</time>
      </trkpt>
      <trkpt lat="47.37055" lon="6.52571">
        <ele>388</ele>
        <time>2015-12-09T12:56:36Z</time>
      </trkpt>
      <trkpt lat="47.37066" lon="6.5258">
        <ele>387</ele>
        <time>2015-12-09T12:57:05Z</time>
      </trkpt>
      <trkpt lat="47.37076" lon="6.52595">
        <ele>389</ele>
        <time>2015-12-09T12:57:15Z</time>
      </trkpt>
      <trkpt lat="47.37083" lon="6.52607">
        <ele>388</ele>
        <time>2015-12-09T12:57:23Z</time>
      </trkpt>
      <trkpt lat="47.37088" lon="6.52609">
        <ele>389</ele>
        <time>2015-12-09T12:57:30Z</time>
      </trkpt>
      <trkpt lat="47.37093" lon="6.5261">
        <ele>389</ele>
        <time>2015-12-09T12:57:37Z</time>
      </trkpt>
      <trkpt lat="47.37101" lon="6.52619">
        <ele>390</ele>
        <time>2015-12-09T12:57:47Z</time>
      </trkpt>
      <trkpt lat="47.37112" lon="6.52635">
        <ele>391</ele>
        <time>2015-12-09T12:58:02Z</time>
      </trkpt>
      <trkpt lat="47.37129" lon="6.5265">
        <ele>388</ele>
        <time>2015-12-09T12:58:33Z</time>
      </trkpt>
      <trkpt lat="47.37144" lon="6.52669">
        <ele>389</ele>
        <time>2015-12-09T12:58:53Z</time>
      </trkpt>
      <trkpt lat="47.37147" lon="6.52669">
        <ele>387</ele>
        <time>2015-12-09T12:59:14Z</time>
      </trkpt>
      <trkpt lat="47.37149" lon="6.52665">
        <ele>384</ele>
        <time>2015-12-09T13:00:27Z</time>
      </trkpt>
      <trkpt lat="47.37152" lon="6.52662">
        <ele>385</ele>
        <time>2015-12-09T13:01:33Z</time>
      </trkpt>
      <trkpt lat="47.37153" lon="6.52667">
        <ele>385</ele>
        <time>2015-12-09T13:02:58Z</time>
      </trkpt>
      <trkpt lat="47.37157" lon="6.52672">
        <ele>385</ele>
        <time>2015-12-09T13:03:28Z</time>
      </trkpt>
      <trkpt lat="47.37159" lon="6.52678">
        <ele>385</ele>
        <time>2015-12-09T13:03:32Z</time>
      </trkpt>
      <trkpt lat="47.37163" lon="6.52683">
        <ele>385</ele>
        <time>2015-12-09T13:03:38Z</time>
      </trkpt>
      <trkpt lat="47.37174" lon="6.52697">
        <ele>379</ele>
        <time>2015-12-09T13:03:55Z</time>
      </trkpt>
      <trkpt lat="47.37178" lon="6.52701">
        <ele>379</ele>
        <time>2015-12-09T13:03:59Z</time>
      </trkpt>
      <trkpt lat="47.37182" lon="6.52707">
        <ele>380</ele>
        <time>2015-12-09T13:04:04Z</time>
      </trkpt>
      <trkpt lat="47.37185" lon="6.52712">
        <ele>380</ele>
        <time>2015-12-09T13:04:10Z</time>
      </trkpt>
      <trkpt lat="47.3719" lon="6.52724">
        <ele>380</ele>
        <time>2015-12-09T13:04:22Z</time>
      </trkpt>
      <trkpt lat="47.37194" lon="6.52733">
        <ele>381</ele>
        <time>2015-12-09T13:04:35Z</time>
      </trkpt>
      <trkpt lat="47.37208" lon="6.52754">
        <ele>382</ele>
        <time>2015-12-09T13:04:59Z</time>
      </trkpt>
      <trkpt lat="47.37227" lon="6.52774">
        <ele>386</ele>
        <time>2015-12-09T13:05:27Z</time>
      </trkpt>
      <trkpt lat="47.37233" lon="6.52787">
        <ele>386</ele>
        <time>2015-12-09T13:05:38Z</time>
      </trkpt>
      <trkpt lat="47.37237" lon="6.52791">
        <ele>387</ele>
        <time>2015-12-09T13:05:45Z</time>
      </trkpt>
      <trkpt lat="47.37239" lon="6.52798">
        <ele>387</ele>
        <time>2015-12-09T13:05:52Z</time>
      </trkpt>
      <trkpt lat="47.3724" lon="6.52805">
        <ele>388</ele>
        <time>2015-12-09T13:05:58Z</time>
      </trkpt>
      <trkpt lat="47.37251" lon="6.52837">
        <ele>394</ele>
        <time>2015-12-09T13:06:30Z</time>
      </trkpt>
      <trkpt lat="47.37249" lon="6.5284">
        <ele>394</ele>
        <time>2015-12-09T13:06:37Z</time>
      </trkpt>
      <trkpt lat="47.37249" lon="6.52847">
        <ele>395</ele>
        <time>2015-12-09T13:06:47Z</time>
      </trkpt>
      <trkpt lat="47.37248" lon="6.52857">
        <ele>395</ele>
        <time>2015-12-09T13:07:04Z</time>
      </trkpt>
      <trkpt lat="47.37243" lon="6.52893">
        <ele>398</ele>
        <time>2015-12-09T13:07:36Z</time>
      </trkpt>
      <trkpt lat="47.37247" lon="6.52922">
        <ele>401</ele>
        <time>2015-12-09T13:08:01Z</time>
      </trkpt>
      <trkpt lat="47.37245" lon="6.52929">
        <ele>402</ele>
        <time>2015-12-09T13:08:07Z</time>
      </trkpt>
      <trkpt lat="47.37227" lon="6.52963">
        <ele>407</ele>
        <time>2015-12-09T13:08:43Z</time>
      </trkpt>
      <trkpt lat="47.37223" lon="6.52968">
        <ele>407</ele>
        <time>2015-12-09T13:08:48Z</time>
      </trkpt>
      <trkpt lat="47.37221" lon="6.52972">
        <ele>408</ele>
        <time>2015-12-09T13:08:57Z</time>
      </trkpt>
      <trkpt lat="47.37219" lon="6.5298">
        <ele>408</ele>
        <time>2015-12-09T13:09:17Z</time>
      </trkpt>
      <trkpt lat="47.37214" lon="6.52994">
        <ele>409</ele>
        <time>2015-12-09T13:09:31Z</time>
      </trkpt>
      <trkpt lat="47.37213" lon="6.53001">
        <ele>409</ele>
        <time>2015-12-09T13:09:37Z</time>
      </trkpt>
      <trkpt lat="47.37212" lon="6.53008">
        <ele>409</ele>
        <time>2015-12-09T13:09:45Z</time>
      </trkpt>
      <trkpt lat="47.37212" lon="6.53015">
        <ele>409</ele>
        <time>2015-12-09T13:09:50Z</time>
      </trkpt>
      <trkpt lat="47.37213" lon="6.53019">
        <ele>409</ele>
        <time>2015-12-09T13:09:56Z</time>
      </trkpt>
      <trkpt lat="47.37217" lon="6.53021">
        <ele>409</ele>
        <time>2015-12-09T13:10:03Z</time>
      </trkpt>
      <trkpt lat="47.37222" lon="6.53025">
        <ele>409</ele>
        <time>2015-12-09T13:10:08Z</time>
      </trkpt>
      <trkpt lat="47.37225" lon="6.53031">
        <ele>409</ele>
        <time>2015-12-09T13:10:13Z</time>
      </trkpt>
      <trkpt lat="47.3723" lon="6.53031">
        <ele>410</ele>
        <time>2015-12-09T13:10:25Z</time>
      </trkpt>
      <trkpt lat="47.37239" lon="6.53033">
        <ele>409</ele>
        <time>2015-12-09T13:10:43Z</time>
      </trkpt>
      <trkpt lat="47.37238" lon="6.53041">
        <ele>409</ele>
        <time>2015-12-09T13:10:49Z</time>
      </trkpt>
      <trkpt lat="47.37237" lon="6.53047">
        <ele>409</ele>
        <time>2015-12-09T13:10:58Z</time>
      </trkpt>
      <trkpt lat="47.37236" lon="6.53048">
        <ele>409</ele>
        <time>2015-12-09T13:12:25Z</time>
      </trkpt>
      <trkpt lat="47.37233" lon="6.53054">
        <ele>410</ele>
        <time>2015-12-09T13:12:41Z</time>
      </trkpt>
      <trkpt lat="47.37228" lon="6.53052">
        <ele>411</ele>
        <time>2015-12-09T13:12:51Z</time>
      </trkpt>
      <trkpt lat="47.37221" lon="6.53055">
        <ele>406</ele>
        <time>2015-12-09T13:13:10Z</time>
      </trkpt>
      <trkpt lat="47.37216" lon="6.53057">
        <ele>407</ele>
        <time>2015-12-09T13:13:15Z</time>
      </trkpt>
      <trkpt lat="47.37202" lon="6.53061">
        <ele>413</ele>
        <time>2015-12-09T13:13:34Z</time>
      </trkpt>
      <trkpt lat="47.37198" lon="6.53067">
        <ele>415</ele>
        <time>2015-12-09T13:14:10Z</time>
      </trkpt>
      <trkpt lat="47.372" lon="6.53065">
        <ele>413</ele>
        <time>2015-12-09T13:16:04Z</time>
      </trkpt>
      <trkpt lat="47.37201" lon="6.53063">
        <ele>413</ele>
        <time>2015-12-09T13:17:35Z</time>
      </trkpt>
      <trkpt lat="47.37195" lon="6.53068">
        <ele>413</ele>
        <time>2015-12-09T13:19:51Z</time>
      </trkpt>
      <trkpt lat="47.37192" lon="6.53075">
        <ele>413</ele>
        <time>2015-12-09T13:20:02Z</time>
      </trkpt>
      <trkpt lat="47.37187" lon="6.53078">
        <ele>415</ele>
        <time>2015-12-09T13:20:06Z</time>
      </trkpt>
      <trkpt lat="47.37185" lon="6.53083">
        <ele>416</ele>
        <time>2015-12-09T13:20:15Z</time>
      </trkpt>
      <trkpt lat="47.37177" lon="6.53092">
        <ele>415</ele>
        <time>2015-12-09T13:20:23Z</time>
      </trkpt>
      <trkpt lat="47.37173" lon="6.53096">
        <ele>415</ele>
        <time>2015-12-09T13:20:27Z</time>
      </trkpt>
      <trkpt lat="47.37171" lon="6.53097">
        <ele>414</ele>
        <time>2015-12-09T13:20:46Z</time>
      </trkpt>
      <trkpt lat="47.37163" lon="6.53106">
        <ele>414</ele>
        <time>2015-12-09T13:20:58Z</time>
      </trkpt>
      <trkpt lat="47.37154" lon="6.5311">
        <ele>412</ele>
        <time>2015-12-09T13:21:10Z</time>
      </trkpt>
      <trkpt lat="47.37147" lon="6.53115">
        <ele>412</ele>
        <time>2015-12-09T13:21:29Z</time>
      </trkpt>
      <trkpt lat="47.37144" lon="6.53134">
        <ele>411</ele>
        <time>2015-12-09T13:21:56Z</time>
      </trkpt>
      <trkpt lat="47.3712" lon="6.53159">
        <ele>415</ele>
        <time>2015-12-09T13:22:28Z</time>
      </trkpt>
      <trkpt lat="47.37115" lon="6.5317">
        <ele>418</ele>
        <time>2015-12-09T13:22:40Z</time>
      </trkpt>
      <trkpt lat="47.37101" lon="6.53189">
        <ele>419</ele>
        <time>2015-12-09T13:23:02Z</time>
      </trkpt>
      <trkpt lat="47.37092" lon="6.53194">
        <ele>419</ele>
        <time>2015-12-09T13:23:12Z</time>
      </trkpt>
      <trkpt lat="47.37085" lon="6.5321">
        <ele>419</ele>
        <time>2015-12-09T13:23:42Z</time>
      </trkpt>
      <trkpt lat="47.37078" lon="6.53221">
        <ele>419</ele>
        <time>2015-12-09T13:23:50Z</time>
      </trkpt>
      <trkpt lat="47.37068" lon="6.53226">
        <ele>418</ele>
        <time>2015-12-09T13:24:03Z</time>
      </trkpt>
      <trkpt lat="47.37053" lon="6.53242">
        <ele>420</ele>
        <time>2015-12-09T13:24:23Z</time>
      </trkpt>
      <trkpt lat="47.37047" lon="6.53248">
        <ele>423</ele>
        <time>2015-12-09T13:24:40Z</time>
      </trkpt>
      <trkpt lat="47.37038" lon="6.53254">
        <ele>423</ele>
        <time>2015-12-09T13:24:54Z</time>
      </trkpt>
      <trkpt lat="47.3703" lon="6.53261">
        <ele>422</ele>
        <time>2015-12-09T13:25:04Z</time>
      </trkpt>
      <trkpt lat="47.37015" lon="6.53295">
        <ele>433</ele>
        <time>2015-12-09T13:25:38Z</time>
      </trkpt>
      <trkpt lat="47.36983" lon="6.53327">
        <ele>436</ele>
        <time>2015-12-09T13:26:11Z</time>
      </trkpt>
      <trkpt lat="47.36965" lon="6.53335">
        <ele>437</ele>
        <time>2015-12-09T13:26:30Z</time>
      </trkpt>
      <trkpt lat="47.36962" lon="6.5334">
        <ele>437</ele>
        <time>2015-12-09T13:26:41Z</time>
      </trkpt>
      <trkpt lat="47.36953" lon="6.53346">
        <ele>436</ele>
        <time>2015-12-09T13:26:53Z</time>
      </trkpt>
      <trkpt lat="47.36914" lon="6.53355">
        <ele>436</ele>
        <time>2015-12-09T13:27:31Z</time>
      </trkpt>
      <trkpt lat="47.36896" lon="6.53364">
        <ele>436</ele>
        <time>2015-12-09T13:27:44Z</time>
      </trkpt>
      <trkpt lat="47.36878" lon="6.53374">
        <ele>438</ele>
        <time>2015-12-09T13:28:10Z</time>
      </trkpt>
      <trkpt lat="47.3687" lon="6.53381">
        <ele>437</ele>
        <time>2015-12-09T13:28:21Z</time>
      </trkpt>
      <trkpt lat="47.3686" lon="6.53385">
        <ele>437</ele>
        <time>2015-12-09T13:28:35Z</time>
      </trkpt>
      <trkpt lat="47.36851" lon="6.53385">
        <ele>438</ele>
        <time>2015-12-09T13:28:42Z</time>
      </trkpt>
      <trkpt lat="47.36833" lon="6.53396">
        <ele>438</ele>
        <time>2015-12-09T13:29:04Z</time>
      </trkpt>
      <trkpt lat="47.36824" lon="6.534">
        <ele>438</ele>
        <time>2015-12-09T13:29:17Z</time>
      </trkpt>
      <trkpt lat="47.36807" lon="6.53408">
        <ele>444</ele>
        <time>2015-12-09T13:29:38Z</time>
      </trkpt>
      <trkpt lat="47.36779" lon="6.53419">
        <ele>447</ele>
        <time>2015-12-09T13:30:10Z</time>
      </trkpt>
      <trkpt lat="47.36773" lon="6.53415">
        <ele>447</ele>
        <time>2015-12-09T13:30:27Z</time>
      </trkpt>
      <trkpt lat="47.36765" lon="6.53423">
        <ele>448</ele>
        <time>2015-12-09T13:30:34Z</time>
      </trkpt>
      <trkpt lat="47.36767" lon="6.53416">
        <ele>458</ele>
        <time>2015-12-09T13:31:24Z</time>
      </trkpt>
      <trkpt lat="47.36773" lon="6.53425">
        <ele>459</ele>
        <time>2015-12-09T13:32:25Z</time>
      </trkpt>
      <trkpt lat="47.36765" lon="6.5343">
        <ele>459</ele>
        <time>2015-12-09T13:32:35Z</time>
      </trkpt>
      <trkpt lat="47.36758" lon="6.53432">
        <ele>459</ele>
        <time>2015-12-09T13:32:52Z</time>
      </trkpt>
      <trkpt lat="47.36737" lon="6.53428">
        <ele>456</ele>
        <time>2015-12-09T13:33:32Z</time>
      </trkpt>
      <trkpt lat="47.36728" lon="6.53432">
        <ele>456</ele>
        <time>2015-12-09T13:33:43Z</time>
      </trkpt>
      <trkpt lat="47.3671" lon="6.53438">
        <ele>459</ele>
        <time>2015-12-09T13:34:04Z</time>
      </trkpt>
      <trkpt lat="47.367" lon="6.53448">
        <ele>461</ele>
        <time>2015-12-09T13:34:19Z</time>
      </trkpt>
      <trkpt lat="47.36691" lon="6.53448">
        <ele>463</ele>
        <time>2015-12-09T13:34:28Z</time>
      </trkpt>
      <trkpt lat="47.36675" lon="6.53439">
        <ele>465</ele>
        <time>2015-12-09T13:34:56Z</time>
      </trkpt>
      <trkpt lat="47.36666" lon="6.53437">
        <ele>465</ele>
        <time>2015-12-09T13:35:22Z</time>
      </trkpt>
      <trkpt lat="47.36658" lon="6.53428">
        <ele>469</ele>
        <time>2015-12-09T13:35:34Z</time>
      </trkpt>
      <trkpt lat="47.3665" lon="6.53419">
        <ele>469</ele>
        <time>2015-12-09T13:35:45Z</time>
      </trkpt>
      <trkpt lat="47.36643" lon="6.53411">
        <ele>470</ele>
        <time>2015-12-09T13:35:53Z</time>
      </trkpt>
      <trkpt lat="47.36635" lon="6.53405">
        <ele>471</ele>
        <time>2015-12-09T13:36:05Z</time>
      </trkpt>
      <trkpt lat="47.36628" lon="6.53395">
        <ele>471</ele>
        <time>2015-12-09T13:36:16Z</time>
      </trkpt>
      <trkpt lat="47.36611" lon="6.53379">
        <ele>472</ele>
        <time>2015-12-09T13:36:40Z</time>
      </trkpt>
      <trkpt lat="47.3661" lon="6.53364">
        <ele>473</ele>
        <time>2015-12-09T13:36:48Z</time>
      </trkpt>
      <trkpt lat="47.36613" lon="6.5331">
        <ele>476</ele>
        <time>2015-12-09T13:37:21Z</time>
      </trkpt>
      <trkpt lat="47.36615" lon="6.53255">
        <ele>479</ele>
        <time>2015-12-09T13:37:57Z</time>
      </trkpt>
      <trkpt lat="47.36614" lon="6.53241">
        <ele>480</ele>
        <time>2015-12-09T13:38:06Z</time>
      </trkpt>
      <trkpt lat="47.36612" lon="6.53227">
        <ele>480</ele>
        <time>2015-12-09T13:38:13Z</time>
      </trkpt>
      <trkpt lat="47.366" lon="6.53173">
        <ele>478</ele>
        <time>2015-12-09T13:38:49Z</time>
      </trkpt>
      <trkpt lat="47.36601" lon="6.5316">
        <ele>477</ele>
        <time>2015-12-09T13:38:59Z</time>
      </trkpt>
      <trkpt lat="47.36601" lon="6.5313">
        <ele>476</ele>
        <time>2015-12-09T13:39:16Z</time>
      </trkpt>
      <trkpt lat="47.36599" lon="6.53102">
        <ele>477</ele>
        <time>2015-12-09T13:39:30Z</time>
      </trkpt>
      <trkpt lat="47.36593" lon="6.53076">
        <ele>477</ele>
        <time>2015-12-09T13:39:49Z</time>
      </trkpt>
      <trkpt lat="47.36591" lon="6.53063">
        <ele>476</ele>
        <time>2015-12-09T13:40:02Z</time>
      </trkpt>
      <trkpt lat="47.36593" lon="6.53034">
        <ele>476</ele>
        <time>2015-12-09T13:40:20Z</time>
      </trkpt>
      <trkpt lat="47.3659" lon="6.53021">
        <ele>475</ele>
        <time>2015-12-09T13:40:27Z</time>
      </trkpt>
      <trkpt lat="47.36587" lon="6.53007">
        <ele>476</ele>
        <time>2015-12-09T13:40:34Z</time>
      </trkpt>
      <trkpt lat="47.36576" lon="6.52951">
        <ele>470</ele>
        <time>2015-12-09T13:41:10Z</time>
      </trkpt>
      <trkpt lat="47.36568" lon="6.52928">
        <ele>468</ele>
        <time>2015-12-09T13:41:25Z</time>
      </trkpt>
      <trkpt lat="47.3657" lon="6.529">
        <ele>467</ele>
        <time>2015-12-09T13:41:49Z</time>
      </trkpt>
      <trkpt lat="47.36578" lon="6.52845">
        <ele>466</ele>
        <time>2015-12-09T13:42:23Z</time>
      </trkpt>
      <trkpt lat="47.36579" lon="6.52817">
        <ele>466</ele>
        <time>2015-12-09T13:42:40Z</time>
      </trkpt>
      <trkpt lat="47.36577" lon="6.52788">
        <ele>463</ele>
        <time>2015-12-09T13:42:59Z</time>
      </trkpt>
      <trkpt lat="47.36578" lon="6.5276">
        <ele>464</ele>
        <time>2015-12-09T13:43:15Z</time>
      </trkpt>
      <trkpt lat="47.36577" lon="6.52747">
        <ele>463</ele>
        <time>2015-12-09T13:43:24Z</time>
      </trkpt>
      <trkpt lat="47.36572" lon="6.52719">
        <ele>458</ele>
        <time>2015-12-09T13:43:44Z</time>
      </trkpt>
      <trkpt lat="47.36579" lon="6.52694">
        <ele>455</ele>
        <time>2015-12-09T13:44:02Z</time>
      </trkpt>
      <trkpt lat="47.36598" lon="6.52663">
        <ele>452</ele>
        <time>2015-12-09T13:44:26Z</time>
      </trkpt>
      <trkpt lat="47.36609" lon="6.52623">
        <ele>454</ele>
        <time>2015-12-09T13:44:51Z</time>
      </trkpt>
      <trkpt lat="47.36609" lon="6.52609">
        <ele>454</ele>
        <time>2015-12-09T13:45:01Z</time>
      </trkpt>
      <trkpt lat="47.36611" lon="6.52596">
        <ele>452</ele>
        <time>2015-12-09T13:45:14Z</time>
      </trkpt>
      <trkpt lat="47.36605" lon="6.52535">
        <ele>450</ele>
        <time>2015-12-09T13:46:02Z</time>
      </trkpt>
      <trkpt lat="47.36605" lon="6.5252">
        <ele>450</ele>
        <time>2015-12-09T13:46:09Z</time>
      </trkpt>
      <trkpt lat="47.36604" lon="6.52464">
        <ele>453</ele>
        <time>2015-12-09T13:46:42Z</time>
      </trkpt>
      <trkpt lat="47.36602" lon="6.52451">
        <ele>455</ele>
        <time>2015-12-09T13:46:55Z</time>
      </trkpt>
      <trkpt lat="47.36586" lon="6.52387">
        <ele>455</ele>
        <time>2015-12-09T13:47:31Z</time>
      </trkpt>
      <trkpt lat="47.36589" lon="6.52373">
        <ele>455</ele>
        <time>2015-12-09T13:47:43Z</time>
      </trkpt>
      <trkpt lat="47.36588" lon="6.52359">
        <ele>456</ele>
        <time>2015-12-09T13:47:52Z</time>
      </trkpt>
      <trkpt lat="47.36586" lon="6.52345">
        <ele>457</ele>
        <time>2015-12-09T13:48:01Z</time>
      </trkpt>
      <trkpt lat="47.36587" lon="6.52332">
        <ele>457</ele>
        <time>2015-12-09T13:48:11Z</time>
      </trkpt>
      <trkpt lat="47.36582" lon="6.52316">
        <ele>456</ele>
        <time>2015-12-09T13:48:31Z</time>
      </trkpt>
      <trkpt lat="47.36578" lon="6.52262">
        <ele>460</ele>
        <time>2015-12-09T13:49:04Z</time>
      </trkpt>
      <trkpt lat="47.36576" lon="6.5222">
        <ele>461</ele>
        <time>2015-12-09T13:49:29Z</time>
      </trkpt>
      <trkpt lat="47.36576" lon="6.52207">
        <ele>461</ele>
        <time>2015-12-09T13:49:37Z</time>
      </trkpt>
      <trkpt lat="47.36573" lon="6.52151">
        <ele>455</ele>
        <time>2015-12-09T13:50:17Z</time>
      </trkpt>
      <trkpt lat="47.36581" lon="6.52099">
        <ele>446</ele>
        <time>2015-12-09T13:50:54Z</time>
      </trkpt>
      <trkpt lat="47.36588" lon="6.52072">
        <ele>444</ele>
        <time>2015-12-09T13:51:13Z</time>
      </trkpt>
      <trkpt lat="47.36588" lon="6.52057">
        <ele>445</ele>
        <time>2015-12-09T13:51:21Z</time>
      </trkpt>
      <trkpt lat="47.36589" lon="6.52043">
        <ele>446</ele>
        <time>2015-12-09T13:51:30Z</time>
      </trkpt>
      <trkpt lat="47.366" lon="6.52005">
        <ele>448</ele>
        <time>2015-12-09T13:51:55Z</time>
      </trkpt>
      <trkpt lat="47.36599" lon="6.51978">
        <ele>447</ele>
        <time>2015-12-09T13:52:13Z</time>
      </trkpt>
      <trkpt lat="47.36603" lon="6.51945">
        <ele>443</ele>
        <time>2015-12-09T13:52:44Z</time>
      </trkpt>
      <trkpt lat="47.36605" lon="6.51931">
        <ele>441</ele>
        <time>2015-12-09T13:52:53Z</time>
      </trkpt>
      <trkpt lat="47.36609" lon="6.51918">
        <ele>441</ele>
        <time>2015-12-09T13:53:00Z</time>
      </trkpt>
      <trkpt lat="47.36622" lon="6.5188">
        <ele>442</ele>
        <time>2015-12-09T13:53:26Z</time>
      </trkpt>
      <trkpt lat="47.36626" lon="6.51824">
        <ele>436</ele>
        <time>2015-12-09T13:54:04Z</time>
      </trkpt>
      <trkpt lat="47.36628" lon="6.51796">
        <ele>434</ele>
        <time>2015-12-09T13:54:22Z</time>
      </trkpt>
      <trkpt lat="47.36628" lon="6.51781">
        <ele>433</ele>
        <time>2015-12-09T13:54:32Z</time>
      </trkpt>
      <trkpt lat="47.36638" lon="6.51742">
        <ele>434</ele>
        <time>2015-12-09T13:54:57Z</time>
      </trkpt>
      <trkpt lat="47.36642" lon="6.51729">
        <ele>433</ele>
        <time>2015-12-09T13:55:07Z</time>
      </trkpt>
      <trkpt lat="47.36642" lon="6.51702">
        <ele>429</ele>
        <time>2015-12-09T13:55:24Z</time>
      </trkpt>
      <trkpt lat="47.36644" lon="6.51688">
        <ele>429</ele>
        <time>2015-12-09T13:55:32Z</time>
      </trkpt>
      <trkpt lat="47.3665" lon="6.51677">
        <ele>428</ele>
        <time>2015-12-09T13:55:40Z</time>
      </trkpt>
      <trkpt lat="47.36654" lon="6.51664">
        <ele>426</ele>
        <time>2015-12-09T13:55:48Z</time>
      </trkpt>
      <trkpt lat="47.36653" lon="6.51608">
        <ele>415</ele>
        <time>2015-12-09T13:56:24Z</time>
      </trkpt>
      <trkpt lat="47.36662" lon="6.51556">
        <ele>408</ele>
        <time>2015-12-09T13:56:57Z</time>
      </trkpt>
      <trkpt lat="47.36665" lon="6.515">
        <ele>402</ele>
        <time>2015-12-09T13:57:30Z</time>
      </trkpt>
      <trkpt lat="47.36671" lon="6.51459">
        <ele>398</ele>
        <time>2015-12-09T13:57:58Z</time>
      </trkpt>
      <trkpt lat="47.36693" lon="6.51412">
        <ele>399</ele>
        <time>2015-12-09T13:58:35Z</time>
      </trkpt>
      <trkpt lat="47.36708" lon="6.51395">
        <ele>400</ele>
        <time>2015-12-09T13:58:51Z</time>
      </trkpt>
      <trkpt lat="47.36717" lon="6.51389">
        <ele>401</ele>
        <time>2015-12-09T13:59:00Z</time>
      </trkpt>
      <trkpt lat="47.36724" lon="6.5138">
        <ele>401</ele>
        <time>2015-12-09T13:59:10Z</time>
      </trkpt>
      <trkpt lat="47.36735" lon="6.51358">
        <ele>397</ele>
        <time>2015-12-09T13:59:34Z</time>
      </trkpt>
      <trkpt lat="47.36743" lon="6.51354">
        <ele>394</ele>
        <time>2015-12-09T13:59:48Z</time>
      </trkpt>
      <trkpt lat="47.36781" lon="6.51342">
        <ele>391</ele>
        <time>2015-12-09T14:00:23Z</time>
      </trkpt>
      <trkpt lat="47.36801" lon="6.51339">
        <ele>390</ele>
        <time>2015-12-09T14:00:39Z</time>
      </trkpt>
      <trkpt lat="47.3681" lon="6.51332">
        <ele>389</ele>
        <time>2015-12-09T14:00:46Z</time>
      </trkpt>
      <trkpt lat="47.3682" lon="6.51308">
        <ele>388</ele>
        <time>2015-12-09T14:01:00Z</time>
      </trkpt>
      <trkpt lat="47.36831" lon="6.51283">
        <ele>388</ele>
        <time>2015-12-09T14:01:19Z</time>
      </trkpt>
      <trkpt lat="47.36833" lon="6.51269">
        <ele>388</ele>
        <time>2015-12-09T14:01:29Z</time>
      </trkpt>
      <trkpt lat="47.36838" lon="6.51259">
        <ele>385</ele>
        <time>2015-12-09T14:01:40Z</time>
      </trkpt>
      <trkpt lat="47.36835" lon="6.51248">
        <ele>382</ele>
        <time>2015-12-09T14:02:20Z</time>
      </trkpt>
      <trkpt lat="47.36831" lon="6.51221">
        <ele>378</ele>
        <time>2015-12-09T14:02:43Z</time>
      </trkpt>
      <trkpt lat="47.36833" lon="6.51208">
        <ele>377</ele>
        <time>2015-12-09T14:02:51Z</time>
      </trkpt>
      <trkpt lat="47.3683" lon="6.51153">
        <ele>379</ele>
        <time>2015-12-09T14:03:27Z</time>
      </trkpt>
      <trkpt lat="47.3683" lon="6.51139">
        <ele>378</ele>
        <time>2015-12-09T14:03:37Z</time>
      </trkpt>
      <trkpt lat="47.36823" lon="6.51084">
        <ele>375</ele>
        <time>2015-12-09T14:04:15Z</time>
      </trkpt>
      <trkpt lat="47.36834" lon="6.51045">
        <ele>375</ele>
        <time>2015-12-09T14:04:39Z</time>
      </trkpt>
      <trkpt lat="47.3684" lon="6.51035">
        <ele>375</ele>
        <time>2015-12-09T14:04:46Z</time>
      </trkpt>
      <trkpt lat="47.36847" lon="6.51027">
        <ele>375</ele>
        <time>2015-12-09T14:04:52Z</time>
      </trkpt>
      <trkpt lat="47.36856" lon="6.51019">
        <ele>374</ele>
        <time>2015-12-09T14:05:01Z</time>
      </trkpt>
      <trkpt lat="47.36865" lon="6.50979">
        <ele>364</ele>
        <time>2015-12-09T14:05:31Z</time>
      </trkpt>
      <trkpt lat="47.36868" lon="6.50966">
        <ele>363</ele>
        <time>2015-12-09T14:05:40Z</time>
      </trkpt>
      <trkpt lat="47.36875" lon="6.50958">
        <ele>363</ele>
        <time>2015-12-09T14:05:52Z</time>
      </trkpt>
      <trkpt lat="47.3689" lon="6.50923">
        <ele>360</ele>
        <time>2015-12-09T14:06:19Z</time>
      </trkpt>
      <trkpt lat="47.36888" lon="6.50909">
        <ele>358</ele>
        <time>2015-12-09T14:06:30Z</time>
      </trkpt>
      <trkpt lat="47.36886" lon="6.50882">
        <ele>358</ele>
        <time>2015-12-09T14:06:47Z</time>
      </trkpt>
      <trkpt lat="47.36887" lon="6.50871">
        <ele>357</ele>
        <time>2015-12-09T14:07:03Z</time>
      </trkpt>
      <trkpt lat="47.36895" lon="6.50868">
        <ele>356</ele>
        <time>2015-12-09T14:07:22Z</time>
      </trkpt>
      <trkpt lat="47.36916" lon="6.50866">
        <ele>353</ele>
        <time>2015-12-09T14:07:50Z</time>
      </trkpt>
      <trkpt lat="47.36925" lon="6.50868">
        <ele>353</ele>
        <time>2015-12-09T14:08:00Z</time>
      </trkpt>
      <trkpt lat="47.36952" lon="6.50875">
        <ele>349</ele>
        <time>2015-12-09T14:08:26Z</time>
      </trkpt>
      <trkpt lat="47.36961" lon="6.50876">
        <ele>350</ele>
        <time>2015-12-09T14:08:38Z</time>
      </trkpt>
      <trkpt lat="47.36969" lon="6.50888">
        <ele>348</ele>
        <time>2015-12-09T14:09:18Z</time>
      </trkpt>
      <trkpt lat="47.36974" lon="6.50889">
        <ele>348</ele>
        <time>2015-12-09T14:09:29Z</time>
      </trkpt>
      <trkpt lat="47.36984" lon="6.5088">
        <ele>344</ele>
        <time>2015-12-09T14:09:56Z</time>
      </trkpt>
      <trkpt lat="47.36983" lon="6.50893">
        <ele>339</ele>
        <time>2015-12-09T14:11:22Z</time>
      </trkpt>
      <trkpt lat="47.36976" lon="6.50894">
        <ele>339</ele>
        <time>2015-12-09T14:11:37Z</time>
      </trkpt>
      <trkpt lat="47.36966" lon="6.50885">
        <ele>339</ele>
        <time>2015-12-09T14:12:12Z</time>
      </trkpt>
      <trkpt lat="47.36972" lon="6.50883">
        <ele>339</ele>
        <time>2015-12-09T14:12:49Z</time>
      </trkpt>
      <trkpt lat="47.36982" lon="6.50897">
        <ele>340</ele>
        <time>2015-12-09T14:13:28Z</time>
      </trkpt>
      <trkpt lat="47.36995" lon="6.50917">
        <ele>343</ele>
        <time>2015-12-09T14:13:46Z</time>
      </trkpt>
      <trkpt lat="47.37002" lon="6.50926">
        <ele>343</ele>
        <time>2015-12-09T14:14:01Z</time>
      </trkpt>
      <trkpt lat="47.37006" lon="6.50939">
        <ele>343</ele>
        <time>2015-12-09T14:14:09Z</time>
      </trkpt>
      <trkpt lat="47.37022" lon="6.50955">
        <ele>343</ele>
        <time>2015-12-09T14:14:32Z</time>
      </trkpt>
      <trkpt lat="47.37036" lon="6.50975">
        <ele>344</ele>
        <time>2015-12-09T14:14:50Z</time>
      </trkpt>
      <trkpt lat="47.37052" lon="6.50991">
        <ele>343</ele>
        <time>2015-12-09T14:15:08Z</time>
      </trkpt>
      <trkpt lat="47.37071" lon="6.51021">
        <ele>341</ele>
        <time>2015-12-09T14:15:34Z</time>
      </trkpt>
      <trkpt lat="47.37079" lon="6.51027">
        <ele>341</ele>
        <time>2015-12-09T14:15:45Z</time>
      </trkpt>
      <trkpt lat="47.37089" lon="6.51051">
        <ele>341</ele>
        <time>2015-12-09T14:16:01Z</time>
      </trkpt>
      <trkpt lat="47.37103" lon="6.51087">
        <ele>339</ele>
        <time>2015-12-09T14:16:30Z</time>
      </trkpt>
      <trkpt lat="47.37111" lon="6.51114">
        <ele>334</ele>
        <time>2015-12-09T14:16:48Z</time>
      </trkpt>
      <trkpt lat="47.37116" lon="6.51141">
        <ele>333</ele>
        <time>2015-12-09T14:17:08Z</time>
      </trkpt>
      <trkpt lat="47.37118" lon="6.51154">
        <ele>333</ele>
        <time>2015-12-09T14:17:18Z</time>
      </trkpt>
      <trkpt lat="47.37122" lon="6.51168">
        <ele>333</ele>
        <time>2015-12-09T14:17:28Z</time>
      </trkpt>
      <trkpt lat="47.37125" lon="6.51181">
        <ele>333</ele>
        <time>2015-12-09T14:17:36Z</time>
      </trkpt>
      <trkpt lat="47.37127" lon="6.51195">
        <ele>332</ele>
        <time>2015-12-09T14:17:43Z</time>
      </trkpt>
      <trkpt lat="47.37128" lon="6.51209">
        <ele>332</ele>
        <time>2015-12-09T14:17:50Z</time>
      </trkpt>
      <trkpt lat="47.37132" lon="6.51222">
        <ele>331</ele>
        <time>2015-12-09T14:18:00Z</time>
      </trkpt>
      <trkpt lat="47.37137" lon="6.51247">
        <ele>330</ele>
        <time>2015-12-09T14:18:17Z</time>
      </trkpt>
      <trkpt lat="47.37141" lon="6.5126">
        <ele>330</ele>
        <time>2015-12-09T14:18:29Z</time>
      </trkpt>
      <trkpt lat="47.37143" lon="6.51273">
        <ele>330</ele>
        <time>2015-12-09T14:18:36Z</time>
      </trkpt>
      <trkpt lat="47.37151" lon="6.51282">
        <ele>329</ele>
        <time>2015-12-09T14:18:45Z</time>
      </trkpt>
      <trkpt lat="47.37159" lon="6.51279">
        <ele>328</ele>
        <time>2015-12-09T14:18:53Z</time>
      </trkpt>
      <trkpt lat="47.37168" lon="6.51271">
        <ele>328</ele>
        <time>2015-12-09T14:19:01Z</time>
      </trkpt>
      <trkpt lat="47.37173" lon="6.5126">
        <ele>328</ele>
        <time>2015-12-09T14:19:08Z</time>
      </trkpt>
      <trkpt lat="47.37178" lon="6.51248">
        <ele>328</ele>
        <time>2015-12-09T14:19:17Z</time>
      </trkpt>
      <trkpt lat="47.37174" lon="6.51234">
        <ele>327</ele>
        <time>2015-12-09T14:19:26Z</time>
      </trkpt>
      <trkpt lat="47.37164" lon="6.51178">
        <ele>328</ele>
        <time>2015-12-09T14:19:58Z</time>
      </trkpt>
      <trkpt lat="47.37162" lon="6.51164">
        <ele>328</ele>
        <time>2015-12-09T14:20:06Z</time>
      </trkpt>
      <trkpt lat="47.37159" lon="6.5115">
        <ele>328</ele>
        <time>2015-12-09T14:20:15Z</time>
      </trkpt>
      <trkpt lat="47.37158" lon="6.51137">
        <ele>327</ele>
        <time>2015-12-09T14:20:24Z</time>
      </trkpt>
      <trkpt lat="47.37159" lon="6.51121">
        <ele>327</ele>
        <time>2015-12-09T14:20:35Z</time>
      </trkpt>
      <trkpt lat="47.37155" lon="6.51067">
        <ele>326</ele>
        <time>2015-12-09T14:21:11Z</time>
      </trkpt>
      <trkpt lat="47.37154" lon="6.51053">
        <ele>324</ele>
        <time>2015-12-09T14:21:22Z</time>
      </trkpt>
      <trkpt lat="47.37148" lon="6.50998">
        <ele>323</ele>
        <time>2015-12-09T14:21:57Z</time>
      </trkpt>
      <trkpt lat="47.37148" lon="6.5097">
        <ele>324</ele>
        <time>2015-12-09T14:22:16Z</time>
      </trkpt>
      <trkpt lat="47.37148" lon="6.50955">
        <ele>323</ele>
        <time>2015-12-09T14:22:25Z</time>
      </trkpt>
      <trkpt lat="47.37145" lon="6.50927">
        <ele>323</ele>
        <time>2015-12-09T14:22:42Z</time>
      </trkpt>
      <trkpt lat="47.37146" lon="6.50913">
        <ele>322</ele>
        <time>2015-12-09T14:22:52Z</time>
      </trkpt>
      <trkpt lat="47.37141" lon="6.50856">
        <ele>319</ele>
        <time>2015-12-09T14:23:22Z</time>
      </trkpt>
      <trkpt lat="47.37145" lon="6.50844">
        <ele>319</ele>
        <time>2015-12-09T14:23:31Z</time>
      </trkpt>
      <trkpt lat="47.37143" lon="6.5083">
        <ele>317</ele>
        <time>2015-12-09T14:23:39Z</time>
      </trkpt>
      <trkpt lat="47.37148" lon="6.50788">
        <ele>316</ele>
        <time>2015-12-09T14:24:07Z</time>
      </trkpt>
      <trkpt lat="47.37161" lon="6.50736">
        <ele>313</ele>
        <time>2015-12-09T14:24:42Z</time>
      </trkpt>
      <trkpt lat="47.37167" lon="6.50726">
        <ele>312</ele>
        <time>2015-12-09T14:24:51Z</time>
      </trkpt>
      <trkpt lat="47.37171" lon="6.50713">
        <ele>312</ele>
        <time>2015-12-09T14:24:58Z</time>
      </trkpt>
      <trkpt lat="47.37175" lon="6.507">
        <ele>313</ele>
        <time>2015-12-09T14:25:07Z</time>
      </trkpt>
      <trkpt lat="47.37199" lon="6.50657">
        <ele>309</ele>
        <time>2015-12-09T14:25:45Z</time>
      </trkpt>
      <trkpt lat="47.37206" lon="6.50648">
        <ele>309</ele>
        <time>2015-12-09T14:25:53Z</time>
      </trkpt>
      <trkpt lat="47.37215" lon="6.5064">
        <ele>308</ele>
        <time>2015-12-09T14:26:01Z</time>
      </trkpt>
      <trkpt lat="47.37221" lon="6.50628">
        <ele>307</ele>
        <time>2015-12-09T14:26:09Z</time>
      </trkpt>
      <trkpt lat="47.37226" lon="6.50616">
        <ele>306</ele>
        <time>2015-12-09T14:26:17Z</time>
      </trkpt>
      <trkpt lat="47.37229" lon="6.50602">
        <ele>305</ele>
        <time>2015-12-09T14:26:28Z</time>
      </trkpt>
      <trkpt lat="47.37236" lon="6.50591">
        <ele>305</ele>
        <time>2015-12-09T14:26:35Z</time>
      </trkpt>
      <trkpt lat="47.37247" lon="6.50568">
        <ele>302</ele>
        <time>2015-12-09T14:26:52Z</time>
      </trkpt>
      <trkpt lat="47.37252" lon="6.50557">
        <ele>301</ele>
        <time>2015-12-09T14:27:01Z</time>
      </trkpt>
      <trkpt lat="47.37258" lon="6.50547">
        <ele>301</ele>
        <time>2015-12-09T14:27:13Z</time>
      </trkpt>
      <trkpt lat="47.37259" lon="6.50532">
        <ele>302</ele>
        <time>2015-12-09T14:27:22Z</time>
      </trkpt>
      <trkpt lat="47.37258" lon="6.50518">
        <ele>302</ele>
        <time>2015-12-09T14:27:32Z</time>
      </trkpt>
      <trkpt lat="47.37256" lon="6.50504">
        <ele>303</ele>
        <time>2015-12-09T14:27:41Z</time>
      </trkpt>
      <trkpt lat="47.37246" lon="6.50467">
        <ele>304</ele>
        <time>2015-12-09T14:28:11Z</time>
      </trkpt>
      <trkpt lat="47.37241" lon="6.5044">
        <ele>303</ele>
        <time>2015-12-09T14:28:34Z</time>
      </trkpt>
      <trkpt lat="47.37231" lon="6.50385">
        <ele>297</ele>
        <time>2015-12-09T14:29:07Z</time>
      </trkpt>
      <trkpt lat="47.37235" lon="6.50376">
        <ele>295</ele>
        <time>2015-12-09T14:29:24Z</time>
      </trkpt>
      <trkpt lat="47.3724" lon="6.50351">
        <ele>296</ele>
        <time>2015-12-09T14:29:43Z</time>
      </trkpt>
      <trkpt lat="47.37247" lon="6.50341">
        <ele>296</ele>
        <time>2015-12-09T14:29:52Z</time>
      </trkpt>
      <trkpt lat="47.37252" lon="6.50329">
        <ele>294</ele>
        <time>2015-12-09T14:30:05Z</time>
      </trkpt>
      <trkpt lat="47.37257" lon="6.50301">
        <ele>293</ele>
        <time>2015-12-09T14:30:25Z</time>
      </trkpt>
      <trkpt lat="47.37265" lon="6.50276">
        <ele>293</ele>
        <time>2015-12-09T14:30:46Z</time>
      </trkpt>
      <trkpt lat="47.37273" lon="6.50268">
        <ele>294</ele>
        <time>2015-12-09T14:30:55Z</time>
      </trkpt>
      <trkpt lat="47.37279" lon="6.50256">
        <ele>295</ele>
        <time>2015-12-09T14:31:05Z</time>
      </trkpt>
      <trkpt lat="47.37292" lon="6.50235">
        <ele>295</ele>
        <time>2015-12-09T14:31:23Z</time>
      </trkpt>
      <trkpt lat="47.37307" lon="6.50218">
        <ele>296</ele>
        <time>2015-12-09T14:31:43Z</time>
      </trkpt>
      <trkpt lat="47.37315" lon="6.5021">
        <ele>296</ele>
        <time>2015-12-09T14:31:55Z</time>
      </trkpt>
      <trkpt lat="47.37324" lon="6.50206">
        <ele>296</ele>
        <time>2015-12-09T14:32:07Z</time>
      </trkpt>
      <trkpt lat="47.37352" lon="6.50217">
        <ele>299</ele>
        <time>2015-12-09T14:32:38Z</time>
      </trkpt>
      <trkpt lat="47.37378" lon="6.50234">
        <ele>300</ele>
        <time>2015-12-09T14:33:09Z</time>
      </trkpt>
      <trkpt lat="47.37413" lon="6.50259">
        <ele>303</ele>
        <time>2015-12-09T14:33:45Z</time>
      </trkpt>
      <trkpt lat="47.37431" lon="6.50269">
        <ele>305</ele>
        <time>2015-12-09T14:34:05Z</time>
      </trkpt>
      <trkpt lat="47.37447" lon="6.50285">
        <ele>305</ele>
        <time>2015-12-09T14:34:23Z</time>
      </trkpt>
      <trkpt lat="47.37454" lon="6.50295">
        <ele>306</ele>
        <time>2015-12-09T14:34:32Z</time>
      </trkpt>
      <trkpt lat="47.37461" lon="6.50304">
        <ele>306</ele>
        <time>2015-12-09T14:34:42Z</time>
      </trkpt>
      <trkpt lat="47.37468" lon="6.50313">
        <ele>305</ele>
        <time>2015-12-09T14:34:52Z</time>
      </trkpt>
      <trkpt lat="47.37472" lon="6.50326">
        <ele>305</ele>
        <time>2015-12-09T14:35:01Z</time>
      </trkpt>
      <trkpt lat="47.37477" lon="6.50329">
        <ele>305</ele>
        <time>2015-12-09T14:35:08Z</time>
      </trkpt>
      <trkpt lat="47.37504" lon="6.5036">
        <ele>311</ele>
        <time>2015-12-09T14:35:41Z</time>
      </trkpt>
      <trkpt lat="47.37507" lon="6.50366">
        <ele>312</ele>
        <time>2015-12-09T14:35:45Z</time>
      </trkpt>
      <trkpt lat="47.37526" lon="6.5039">
        <ele>313</ele>
        <time>2015-12-09T14:36:12Z</time>
      </trkpt>
      <trkpt lat="47.37535" lon="6.50397">
        <ele>315</ele>
        <time>2015-12-09T14:36:22Z</time>
      </trkpt>
      <trkpt lat="47.37544" lon="6.50403">
        <ele>315</ele>
        <time>2015-12-09T14:36:32Z</time>
      </trkpt>
      <trkpt lat="47.37548" lon="6.50406">
        <ele>316</ele>
        <time>2015-12-09T14:36:38Z</time>
      </trkpt>
      <trkpt lat="47.37578" lon="6.50428">
        <ele>319</ele>
        <time>2015-12-09T14:37:13Z</time>
      </trkpt>
      <trkpt lat="47.37583" lon="6.50429">
        <ele>319</ele>
        <time>2015-12-09T14:37:19Z</time>
      </trkpt>
      <trkpt lat="47.37587" lon="6.50433">
        <ele>319</ele>
        <time>2015-12-09T14:37:24Z</time>
      </trkpt>
      <trkpt lat="47.37589" lon="6.50436">
        <ele>319</ele>
        <time>2015-12-09T14:37:30Z</time>
      </trkpt>
      <trkpt lat="47.37593" lon="6.50441">
        <ele>319</ele>
        <time>2015-12-09T14:37:34Z</time>
      </trkpt>
      <trkpt lat="47.376" lon="6.50451">
        <ele>320</ele>
        <time>2015-12-09T14:37:42Z</time>
      </trkpt>
      <trkpt lat="47.37608" lon="6.5046">
        <ele>320</ele>
        <time>2015-12-09T14:37:52Z</time>
      </trkpt>
      <trkpt lat="47.3761" lon="6.50461">
        <ele>321</ele>
        <time>2015-12-09T14:38:02Z</time>
      </trkpt>
      <trkpt lat="47.37627" lon="6.50478">
        <ele>322</ele>
        <time>2015-12-09T14:38:20Z</time>
      </trkpt>
      <trkpt lat="47.37656" lon="6.50516">
        <ele>321</ele>
        <time>2015-12-09T14:38:56Z</time>
      </trkpt>
      <trkpt lat="47.37673" lon="6.50525">
        <ele>322</ele>
        <time>2015-12-09T14:39:10Z</time>
      </trkpt>
      <trkpt lat="47.37676" lon="6.50538">
        <ele>323</ele>
        <time>2015-12-09T14:39:19Z</time>
      </trkpt>
      <trkpt lat="47.37681" lon="6.50555">
        <ele>324</ele>
        <time>2015-12-09T14:39:30Z</time>
      </trkpt>
      <trkpt lat="47.37696" lon="6.50575">
        <ele>324</ele>
        <time>2015-12-09T14:39:52Z</time>
      </trkpt>
      <trkpt lat="47.37699" lon="6.50588">
        <ele>324</ele>
        <time>2015-12-09T14:40:03Z</time>
      </trkpt>
      <trkpt lat="47.37703" lon="6.50603">
        <ele>322</ele>
        <time>2015-12-09T14:40:27Z</time>
      </trkpt>
      <trkpt lat="47.37705" lon="6.50611">
        <ele>322</ele>
        <time>2015-12-09T14:40:31Z</time>
      </trkpt>
      <trkpt lat="47.37707" lon="6.50618">
        <ele>322</ele>
        <time>2015-12-09T14:40:35Z</time>
      </trkpt>
      <trkpt lat="47.3771" lon="6.50633">
        <ele>323</ele>
        <time>2015-12-09T14:40:45Z</time>
      </trkpt>
      <trkpt lat="47.37717" lon="6.50681">
        <ele>324</ele>
        <time>2015-12-09T14:41:18Z</time>
      </trkpt>
      <trkpt lat="47.3772" lon="6.50703">
        <ele>326</ele>
        <time>2015-12-09T14:41:33Z</time>
      </trkpt>
      <trkpt lat="47.37723" lon="6.50726">
        <ele>327</ele>
        <time>2015-12-09T14:41:50Z</time>
      </trkpt>
      <trkpt lat="47.37724" lon="6.50733">
        <ele>327</ele>
        <time>2015-12-09T14:41:57Z</time>
      </trkpt>
      <trkpt lat="47.37724" lon="6.5074">
        <ele>327</ele>
        <time>2015-12-09T14:42:04Z</time>
      </trkpt>
      <trkpt lat="47.37722" lon="6.50782">
        <ele>330</ele>
        <time>2015-12-09T14:42:33Z</time>
      </trkpt>
      <trkpt lat="47.37722" lon="6.50816">
        <ele>330</ele>
        <time>2015-12-09T14:43:07Z</time>
      </trkpt>
      <trkpt lat="47.37721" lon="6.50831">
        <ele>329</ele>
        <time>2015-12-09T14:43:15Z</time>
      </trkpt>
      <trkpt lat="47.37719" lon="6.50845">
        <ele>329</ele>
        <time>2015-12-09T14:43:22Z</time>
      </trkpt>
      <trkpt lat="47.37727" lon="6.50871">
        <ele>330</ele>
        <time>2015-12-09T14:43:43Z</time>
      </trkpt>
      <trkpt lat="47.37734" lon="6.50913">
        <ele>334</ele>
        <time>2015-12-09T14:44:10Z</time>
      </trkpt>
      <trkpt lat="47.37749" lon="6.50935">
        <ele>337</ele>
        <time>2015-12-09T14:44:44Z</time>
      </trkpt>
      <trkpt lat="47.37752" lon="6.5093">
        <ele>337</ele>
        <time>2015-12-09T14:44:50Z</time>
      </trkpt>
      <trkpt lat="47.37754" lon="6.50927">
        <ele>334</ele>
        <time>2015-12-09T14:45:24Z</time>
      </trkpt>
      <trkpt lat="47.37759" lon="6.5093">
        <ele>333</ele>
        <time>2015-12-09T14:47:22Z</time>
      </trkpt>
      <trkpt lat="47.37764" lon="6.50931">
        <ele>334</ele>
        <time>2015-12-09T14:47:27Z</time>
      </trkpt>
      <trkpt lat="47.37773" lon="6.50926">
        <ele>334</ele>
        <time>2015-12-09T14:47:38Z</time>
      </trkpt>
      <trkpt lat="47.37798" lon="6.50925">
        <ele>341</ele>
        <time>2015-12-09T14:48:10Z</time>
      </trkpt>
      <trkpt lat="47.37814" lon="6.50924">
        <ele>343</ele>
        <time>2015-12-09T14:48:23Z</time>
      </trkpt>
      <trkpt lat="47.37825" lon="6.50926">
        <ele>343</ele>
        <time>2015-12-09T14:48:33Z</time>
      </trkpt>
      <trkpt lat="47.37845" lon="6.50927">
        <ele>341</ele>
        <time>2015-12-09T14:48:54Z</time>
      </trkpt>
      <trkpt lat="47.37845" lon="6.5093">
        <ele>340</ele>
        <time>2015-12-09T14:49:00Z</time>
      </trkpt>
      <trkpt lat="47.3785" lon="6.50928">
        <ele>340</ele>
        <time>2015-12-09T14:49:19Z</time>
      </trkpt>
      <trkpt lat="47.3786" lon="6.5093">
        <ele>340</ele>
        <time>2015-12-09T14:49:30Z</time>
      </trkpt>
      <trkpt lat="47.37874" lon="6.5093">
        <ele>338</ele>
        <time>2015-12-09T14:49:43Z</time>
      </trkpt>
      <trkpt lat="47.37879" lon="6.5093">
        <ele>338</ele>
        <time>2015-12-09T14:49:47Z</time>
      </trkpt>
      <trkpt lat="47.37883" lon="6.50929">
        <ele>338</ele>
        <time>2015-12-09T14:49:52Z</time>
      </trkpt>
      <trkpt lat="47.37889" lon="6.50929">
        <ele>337</ele>
        <time>2015-12-09T14:49:57Z</time>
      </trkpt>
      <trkpt lat="47.37908" lon="6.50926">
        <ele>336</ele>
        <time>2015-12-09T14:50:16Z</time>
      </trkpt>
      <trkpt lat="47.37913" lon="6.50927">
        <ele>336</ele>
        <time>2015-12-09T14:50:20Z</time>
      </trkpt>
      <trkpt lat="47.37922" lon="6.50926">
        <ele>337</ele>
        <time>2015-12-09T14:50:29Z</time>
      </trkpt>
      <trkpt lat="47.37927" lon="6.50924">
        <ele>336</ele>
        <time>2015-12-09T14:50:34Z</time>
      </trkpt>
      <trkpt lat="47.37932" lon="6.50924">
        <ele>337</ele>
        <time>2015-12-09T14:50:38Z</time>
      </trkpt>
      <trkpt lat="47.37956" lon="6.50923">
        <ele>336</ele>
        <time>2015-12-09T14:51:01Z</time>
      </trkpt>
      <trkpt lat="47.37975" lon="6.50921">
        <ele>337</ele>
        <time>2015-12-09T14:51:19Z</time>
      </trkpt>
      <trkpt lat="47.38012" lon="6.50911">
        <ele>338</ele>
        <time>2015-12-09T14:51:50Z</time>
      </trkpt>
      <trkpt lat="47.38045" lon="6.50903">
        <ele>337</ele>
        <time>2015-12-09T14:52:20Z</time>
      </trkpt>
      <trkpt lat="47.3805" lon="6.50901">
        <ele>336</ele>
        <time>2015-12-09T14:52:26Z</time>
      </trkpt>
      <trkpt lat="47.3807" lon="6.50896">
        <ele>336</ele>
        <time>2015-12-09T14:52:41Z</time>
      </trkpt>
      <trkpt lat="47.3808" lon="6.50892">
        <ele>337</ele>
        <time>2015-12-09T14:52:51Z</time>
      </trkpt>
      <trkpt lat="47.38096" lon="6.50881">
        <ele>337</ele>
        <time>2015-12-09T14:53:09Z</time>
      </trkpt>
      <trkpt lat="47.38114" lon="6.50872">
        <ele>336</ele>
        <time>2015-12-09T14:53:26Z</time>
      </trkpt>
      <trkpt lat="47.38151" lon="6.50864">
        <ele>338</ele>
        <time>2015-12-09T14:54:03Z</time>
      </trkpt>
      <trkpt lat="47.3816" lon="6.50861">
        <ele>338</ele>
        <time>2015-12-09T14:54:14Z</time>
      </trkpt>
      <trkpt lat="47.38179" lon="6.50857">
        <ele>337</ele>
        <time>2015-12-09T14:54:36Z</time>
      </trkpt>
      <trkpt lat="47.38198" lon="6.50848">
        <ele>336</ele>
        <time>2015-12-09T14:54:52Z</time>
      </trkpt>
      <trkpt lat="47.38207" lon="6.50845">
        <ele>337</ele>
        <time>2015-12-09T14:55:00Z</time>
      </trkpt>
      <trkpt lat="47.38226" lon="6.50842">
        <ele>337</ele>
        <time>2015-12-09T14:55:22Z</time>
      </trkpt>
      <trkpt lat="47.38235" lon="6.50848">
        <ele>337</ele>
        <time>2015-12-09T14:55:33Z</time>
      </trkpt>
      <trkpt lat="47.38248" lon="6.50868">
        <ele>336</ele>
        <time>2015-12-09T14:55:53Z</time>
      </trkpt>
      <trkpt lat="47.38243" lon="6.50858">
        <ele>332</ele>
        <time>2015-12-09T15:00:58Z</time>
      </trkpt>
      <trkpt lat="47.38244" lon="6.50843">
        <ele>332</ele>
        <time>2015-12-09T15:01:08Z</time>
      </trkpt>
      <trkpt lat="47.38251" lon="6.50833">
        <ele>330</ele>
        <time>2015-12-09T15:01:18Z</time>
      </trkpt>
      <trkpt lat="47.38269" lon="6.50822">
        <ele>331</ele>
        <time>2015-12-09T15:01:37Z</time>
      </trkpt>
      <trkpt lat="47.38278" lon="6.50816">
        <ele>333</ele>
        <time>2015-12-09T15:01:49Z</time>
      </trkpt>
      <trkpt lat="47.38288" lon="6.50812">
        <ele>334</ele>
        <time>2015-12-09T15:01:58Z</time>
      </trkpt>
      <trkpt lat="47.38296" lon="6.50806">
        <ele>334</ele>
        <time>2015-12-09T15:02:07Z</time>
      </trkpt>
      <trkpt lat="47.38298" lon="6.50799">
        <ele>334</ele>
        <time>2015-12-09T15:02:14Z</time>
      </trkpt>
    </trkseg>
  </trk>
</gpx>